Chiricana — 3EKU3 — position and weather

sailwx.info

Track history (hours):
 
Tides and Currents Weather Stations Pressure Air Temp Water Temp Dewpoint Dewpoint Depression Visibility Wind Speed Wind Dir Waves Ship Positions

Chiricana

Last reported at 2017-Oct-17 03:54 UTC. Time now 2017-Oct-19 20:26 UTC.
Position N 21°60' E 114°20'.

Length 300 m; draft 13.5 m.

Type: Ship (hazmat cat D). MMSI: 372829000.

Date/timePositionNaut miles runAvg speedWind from/ knotsBaromVisibWave heightAir tempDewpointWater temp
2017-Oct-17 03:54N 21°60' E 114°20'36 9.5
2017-Oct-17 00:05N 22°27' E 113°54'0 0.0
2017-Oct-16 12:48N 22°27' E 113°53'0 0.8
2017-Oct-16 12:22N 22°26' E 113°53'3 6.2
2017-Oct-16 11:50N 22°23' E 113°54'258 7.1
2017-Oct-14 23:22N 23°57' E 118°16'514.7
2017-Oct-14 23:00N 24°02' E 118°18'713.6
2017-Oct-14 22:30N 24°09' E 118°18'510.6
2017-Oct-14 22:01N 24°14' E 118°17'611.4
2017-Oct-14 21:31N 24°18' E 118°12'611.8
2017-Oct-14 21:01N 24°23' E 118°08'611.4
2017-Oct-14 20:31N 24°26' E 118°03'4 7.8
2017-Oct-14 19:59N 24°27' E 117°58'0 0.0
2017-Oct-14 18:31N 24°27' E 117°58'0 0.0
2017-Oct-14 18:22N 24°27' E 117°58'0 0.0
2017-Oct-14 17:55N 24°27' E 117°58'0 0.0
2017-Oct-14 17:28N 24°27' E 117°58'0 0.0
2017-Oct-14 14:49N 24°27' E 117°58'0 0.0
2017-Oct-14 14:13N 24°27' E 117°58'0 0.0
2017-Oct-14 13:55N 24°27' E 117°58'0 0.0
2017-Oct-14 13:28N 24°27' E 117°58'0 0.0
2017-Oct-14 12:37N 24°27' E 117°58'0 0.0
2017-Oct-14 12:25N 24°27' E 117°58'0 0.0
2017-Oct-14 11:52N 24°27' E 117°58'0 0.0
2017-Oct-14 11:28N 24°27' E 117°58'0 0.0
2017-Oct-14 10:59N 24°27' E 117°58'1 2.1
2017-Oct-14 10:30N 24°27' E 117°59'5 9.4
2017-Oct-14 10:00N 24°25' E 118°04'611.5
2017-Oct-14 09:30N 24°22' E 118°09'510.9
2017-Oct-14 09:00N 24°18' E 118°13'4 8.6
2017-Oct-14 08:30N 24°15' E 118°16'4 9.0
2017-Oct-14 08:00N 24°16' E 118°21'611.8
2017-Oct-14 07:30N 24°17' E 118°27'713.4
2017-Oct-14 07:00N 24°18' E 118°35'611.9
2017-Oct-14 06:30N 24°19' E 118°41'2 3.0
2017-Oct-14 06:00N 24°18' E 118°42'1 3.0
2017-Oct-14 05:30N 24°17' E 118°42'1 2.4
2017-Oct-14 04:59N 24°15' E 118°41'1 2.4
2017-Oct-14 04:31N 24°15' E 118°40'1 2.1
2017-Oct-14 03:57N 24°14' E 118°39'1 1.9
2017-Oct-14 03:30N 24°14' E 118°38'1 2.1
2017-Oct-14 02:59N 24°13' E 118°38'1 1.9
2017-Oct-14 02:30N 24°12' E 118°37'1 1.7
2017-Oct-14 02:00N 24°12' E 118°36'1 1.5
2017-Oct-14 01:26N 24°11' E 118°35'2 0.9
2017-Oct-13 23:44N 24°11' E 118°34'0 1.0
2017-Oct-13 23:19N 24°11' E 118°33'0 1.3
2017-Oct-13 22:59N 24°11' E 118°33'0 0.9
2017-Oct-13 22:27N 24°11' E 118°32'0 1.0
2017-Oct-13 22:00N 24°11' E 118°32'1 1.0
2017-Oct-13 21:30N 24°11' E 118°31'1 1.1
2017-Oct-13 21:01N 24°11' E 118°31'1 1.7
2017-Oct-13 20:30N 24°10' E 118°30'1 1.3
2017-Oct-13 20:00N 24°10' E 118°29'1 1.5
2017-Oct-13 19:30N 24°10' E 118°28'1 1.7
2017-Oct-13 18:58N 24°09' E 118°27'1 1.5
2017-Oct-13 18:30N 24°09' E 118°27'1 1.5
2017-Oct-13 18:00N 24°09' E 118°26'1 1.5
2017-Oct-13 17:30N 24°09' E 118°25'1 1.1
2017-Oct-13 17:00N 24°09' E 118°25'1 1.1
2017-Oct-13 16:30N 24°09' E 118°24'1 2.2
2017-Oct-13 16:00N 24°08' E 118°23'1 2.4
2017-Oct-13 15:30N 24°07' E 118°22'1 2.4
2017-Oct-13 15:00N 24°06' E 118°21'1 2.1
2017-Oct-13 14:30N 24°05' E 118°20'1 2.1
2017-Oct-13 14:00N 24°05' E 118°20'1 1.9
2017-Oct-13 13:30N 24°04' E 118°19'1 1.9
2017-Oct-13 13:00N 24°03' E 118°19'1 1.8
2017-Oct-13 12:30N 24°02' E 118°18'510.9
2017-Oct-13 12:01N 24°04' E 118°24'815.1
2017-Oct-13 11:30N 24°09' E 118°31'815.3
2017-Oct-13 11:00N 24°13' E 118°38'715.0
2017-Oct-13 10:30N 24°17' E 118°44'  
2017-Oct-10 22:47N 31°05' E 122°34'513.6
2017-Oct-10 22:26N 31°06' E 122°28'511.6
2017-Oct-10 22:00N 31°06' E 122°22'713.5
2017-Oct-10 21:30N 31°08' E 122°15'714.9
2017-Oct-10 21:00N 31°13' E 122°08'714.5
2017-Oct-10 20:30N 31°15' E 121°60'713.7
2017-Oct-10 20:01N 31°16' E 121°52'714.2
2017-Oct-10 19:31N 31°19' E 121°44'4 7.6
2017-Oct-10 19:00N 31°20' E 121°40'0 0.3
2017-Oct-10 18:30N 31°20' E 121°40'0 0.0
2017-Oct-10 18:00N 31°20' E 121°40'0 0.0
2017-Oct-10 17:30N 31°20' E 121°40'0 0.0
2017-Oct-10 17:00N 31°20' E 121°40'0 0.0
2017-Oct-10 16:30N 31°20' E 121°40'0 0.0
2017-Oct-10 16:00N 31°20' E 121°40'0 0.0
2017-Oct-10 15:30N 31°20' E 121°40'0 0.0
2017-Oct-10 15:00N 31°20' E 121°40'0 0.0
2017-Oct-10 14:00N 31°20' E 121°40'0 0.1
2017-Oct-10 13:30N 31°20' E 121°40'0 0.0
2017-Oct-10 13:00N 31°20' E 121°40'0 0.0
2017-Oct-10 12:30N 31°20' E 121°40'0 0.0
2017-Oct-10 12:00N 31°20' E 121°40'0 0.0
2017-Oct-10 11:27N 31°20' E 121°40'0 0.0
2017-Oct-10 11:00N 31°20' E 121°40'0 0.0
2017-Oct-10 10:30N 31°20' E 121°40'0 0.0
2017-Oct-10 10:00N 31°20' E 121°40'0 0.0
2017-Oct-10 09:30N 31°20' E 121°40'0 0.0
2017-Oct-10 09:00N 31°20' E 121°40'0 0.0
2017-Oct-10 08:30N 31°20' E 121°40'0 0.0
2017-Oct-10 08:00N 31°20' E 121°40'0 0.0
2017-Oct-10 07:30N 31°20' E 121°40'0 0.0
2017-Oct-10 07:00N 31°20' E 121°40'0 0.0
2017-Oct-10 06:30N 31°20' E 121°40'1 1.2
2017-Oct-10 06:00N 31°21' E 121°40'5 9.1
2017-Oct-10 05:30N 31°19' E 121°45'611.7
2017-Oct-10 05:00N 31°16' E 121°51'510.8
2017-Oct-10 04:30N 31°15' E 121°57'510.5
2017-Oct-10 04:00N 31°14' E 122°03'510.4
2017-Oct-10 03:31N 31°12' E 122°09'510.0
2017-Oct-10 03:00N 31°09' E 122°14'5 9.5
2017-Oct-10 02:30N 31°06' E 122°18'510.3
2017-Oct-10 02:00N 31°06' E 122°24'4 7.6
2017-Oct-10 01:30N 31°07' E 122°29'5 9.1
2017-Oct-10 01:00N 31°07' E 122°34'1010.7
2017-Oct-10 00:07N 31°07' E 122°45'5 0.5
2017-Oct-09 13:26N 31°06' E 122°51'  
Track history (hours):
 
Tides and Currents Weather Stations Pressure Air Temp Water Temp Dewpoint Dewpoint Depression Visibility Wind Speed Wind Dir Waves Ship Positions

Chiricana

Last reported at 2017-Oct-17 03:54 UTC. Time now 2017-Oct-19 20:26 UTC.
Position N 21°60' E 114°20'.

Length 300 m; draft 13.5 m.

Type: Ship (hazmat cat D). MMSI: 372829000.

Date/timePositionNaut miles runAvg speedWind from/ knotsBaromVisibWave heightAir tempDewpointWater temp
2017-Oct-17 03:54N 21°60' E 114°20'36 9.5
2017-Oct-17 00:05N 22°27' E 113°54'0 0.0
2017-Oct-16 12:48N 22°27' E 113°53'0 0.8
2017-Oct-16 12:22N 22°26' E 113°53'3 6.2
2017-Oct-16 11:50N 22°23' E 113°54'258 7.1
2017-Oct-14 23:22N 23°57' E 118°16'514.7
2017-Oct-14 23:00N 24°02' E 118°18'713.6
2017-Oct-14 22:30N 24°09' E 118°18'510.6
2017-Oct-14 22:01N 24°14' E 118°17'611.4
2017-Oct-14 21:31N 24°18' E 118°12'611.8
2017-Oct-14 21:01N 24°23' E 118°08'611.4
2017-Oct-14 20:31N 24°26' E 118°03'4 7.8
2017-Oct-14 19:59N 24°27' E 117°58'0 0.0
2017-Oct-14 18:31N 24°27' E 117°58'0 0.0
2017-Oct-14 18:22N 24°27' E 117°58'0 0.0
2017-Oct-14 17:55N 24°27' E 117°58'0 0.0
2017-Oct-14 17:28N 24°27' E 117°58'0 0.0
2017-Oct-14 14:49N 24°27' E 117°58'0 0.0
2017-Oct-14 14:13N 24°27' E 117°58'0 0.0
2017-Oct-14 13:55N 24°27' E 117°58'0 0.0
2017-Oct-14 13:28N 24°27' E 117°58'0 0.0
2017-Oct-14 12:37N 24°27' E 117°58'0 0.0
2017-Oct-14 12:25N 24°27' E 117°58'0 0.0
2017-Oct-14 11:52N 24°27' E 117°58'0 0.0
2017-Oct-14 11:28N 24°27' E 117°58'0 0.0
2017-Oct-14 10:59N 24°27' E 117°58'1 2.1
2017-Oct-14 10:30N 24°27' E 117°59'5 9.4
2017-Oct-14 10:00N 24°25' E 118°04'611.5
2017-Oct-14 09:30N 24°22' E 118°09'510.9
2017-Oct-14 09:00N 24°18' E 118°13'4 8.6
2017-Oct-14 08:30N 24°15' E 118°16'4 9.0
2017-Oct-14 08:00N 24°16' E 118°21'611.8
2017-Oct-14 07:30N 24°17' E 118°27'713.4
2017-Oct-14 07:00N 24°18' E 118°35'611.9
2017-Oct-14 06:30N 24°19' E 118°41'2 3.0
2017-Oct-14 06:00N 24°18' E 118°42'1 3.0
2017-Oct-14 05:30N 24°17' E 118°42'1 2.4
2017-Oct-14 04:59N 24°15' E 118°41'1 2.4
2017-Oct-14 04:31N 24°15' E 118°40'1 2.1
2017-Oct-14 03:57N 24°14' E 118°39'1 1.9
2017-Oct-14 03:30N 24°14' E 118°38'1 2.1
2017-Oct-14 02:59N 24°13' E 118°38'1 1.9
2017-Oct-14 02:30N 24°12' E 118°37'1 1.7
2017-Oct-14 02:00N 24°12' E 118°36'1 1.5
2017-Oct-14 01:26N 24°11' E 118°35'2 0.9
2017-Oct-13 23:44N 24°11' E 118°34'0 1.0
2017-Oct-13 23:19N 24°11' E 118°33'0 1.3
2017-Oct-13 22:59N 24°11' E 118°33'0 0.9
2017-Oct-13 22:27N 24°11' E 118°32'0 1.0
2017-Oct-13 22:00N 24°11' E 118°32'1 1.0
2017-Oct-13 21:30N 24°11' E 118°31'1 1.1
2017-Oct-13 21:01N 24°11' E 118°31'1 1.7
2017-Oct-13 20:30N 24°10' E 118°30'1 1.3
2017-Oct-13 20:00N 24°10' E 118°29'1 1.5
2017-Oct-13 19:30N 24°10' E 118°28'1 1.7
2017-Oct-13 18:58N 24°09' E 118°27'1 1.5
2017-Oct-13 18:30N 24°09' E 118°27'1 1.5
2017-Oct-13 18:00N 24°09' E 118°26'1 1.5
2017-Oct-13 17:30N 24°09' E 118°25'1 1.1
2017-Oct-13 17:00N 24°09' E 118°25'1 1.1
2017-Oct-13 16:30N 24°09' E 118°24'1 2.2
2017-Oct-13 16:00N 24°08' E 118°23'1 2.4
2017-Oct-13 15:30N 24°07' E 118°22'1 2.4
2017-Oct-13 15:00N 24°06' E 118°21'1 2.1
2017-Oct-13 14:30N 24°05' E 118°20'1 2.1
2017-Oct-13 14:00N 24°05' E 118°20'1 1.9
2017-Oct-13 13:30N 24°04' E 118°19'1 1.9
2017-Oct-13 13:00N 24°03' E 118°19'1 1.8
2017-Oct-13 12:30N 24°02' E 118°18'510.9
2017-Oct-13 12:01N 24°04' E 118°24'815.1
2017-Oct-13 11:30N 24°09' E 118°31'815.3
2017-Oct-13 11:00N 24°13' E 118°38'715.0
2017-Oct-13 10:30N 24°17' E 118°44'  
2017-Oct-10 22:47N 31°05' E 122°34'513.6
2017-Oct-10 22:26N 31°06' E 122°28'511.6
2017-Oct-10 22:00N 31°06' E 122°22'713.5
2017-Oct-10 21:30N 31°08' E 122°15'714.9
2017-Oct-10 21:00N 31°13' E 122°08'714.5
2017-Oct-10 20:30N 31°15' E 121°60'713.7
2017-Oct-10 20:01N 31°16' E 121°52'714.2
2017-Oct-10 19:31N 31°19' E 121°44'4 7.6
2017-Oct-10 19:00N 31°20' E 121°40'0 0.3
2017-Oct-10 18:30N 31°20' E 121°40'0 0.0
2017-Oct-10 18:00N 31°20' E 121°40'0 0.0
2017-Oct-10 17:30N 31°20' E 121°40'0 0.0
2017-Oct-10 17:00N 31°20' E 121°40'0 0.0
2017-Oct-10 16:30N 31°20' E 121°40'0 0.0
2017-Oct-10 16:00N 31°20' E 121°40'0 0.0
2017-Oct-10 15:30N 31°20' E 121°40'0 0.0
2017-Oct-10 15:00N 31°20' E 121°40'0 0.0
2017-Oct-10 14:00N 31°20' E 121°40'0 0.1
2017-Oct-10 13:30N 31°20' E 121°40'0 0.0
2017-Oct-10 13:00N 31°20' E 121°40'0 0.0
2017-Oct-10 12:30N 31°20' E 121°40'0 0.0
2017-Oct-10 12:00N 31°20' E 121°40'0 0.0
2017-Oct-10 11:27N 31°20' E 121°40'0 0.0
2017-Oct-10 11:00N 31°20' E 121°40'0 0.0
2017-Oct-10 10:30N 31°20' E 121°40'0 0.0
2017-Oct-10 10:00N 31°20' E 121°40'0 0.0
2017-Oct-10 09:30N 31°20' E 121°40'0 0.0
2017-Oct-10 09:00N 31°20' E 121°40'0 0.0
2017-Oct-10 08:30N 31°20' E 121°40'0 0.0
2017-Oct-10 08:00N 31°20' E 121°40'0 0.0
2017-Oct-10 07:30N 31°20' E 121°40'0 0.0
2017-Oct-10 07:00N 31°20' E 121°40'0 0.0
2017-Oct-10 06:30N 31°20' E 121°40'1 1.2
2017-Oct-10 06:00N 31°21' E 121°40'5 9.1
2017-Oct-10 05:30N 31°19' E 121°45'611.7
2017-Oct-10 05:00N 31°16' E 121°51'510.8
2017-Oct-10 04:30N 31°15' E 121°57'510.5
2017-Oct-10 04:00N 31°14' E 122°03'510.4
2017-Oct-10 03:31N 31°12' E 122°09'510.0
2017-Oct-10 03:00N 31°09' E 122°14'5 9.5
2017-Oct-10 02:30N 31°06' E 122°18'510.3
2017-Oct-10 02:00N 31°06' E 122°24'4 7.6
2017-Oct-10 01:30N 31°07' E 122°29'5 9.1
2017-Oct-10 01:00N 31°07' E 122°34'1010.7
2017-Oct-10 00:07N 31°07' E 122°45'5 0.5
2017-Oct-09 13:26N 31°06' E 122°51'  

Dump ship's entire track history